createdAt,value
2023-01-12T00:00:41.867Z,429.00
2023-01-12T00:01:41.947Z,430.00
2023-01-12T00:02:41.884Z,430.00
2023-01-12T00:03:41.877Z,430.00
2023-01-12T00:04:41.780Z,431.00
2023-01-12T00:06:02.847Z,431.00
2023-01-12T00:06:41.750Z,430.00
2023-01-12T00:07:41.737Z,430.00
2023-01-12T00:08:41.817Z,432.00
2023-01-12T00:09:41.713Z,432.00
2023-01-12T00:10:41.847Z,435.00
2023-01-12T00:11:41.711Z,435.00
2023-01-12T00:12:41.786Z,436.00
2023-01-12T00:13:41.654Z,438.00
2023-01-12T00:14:41.833Z,442.00
2023-01-12T00:15:41.652Z,440.00
2023-01-12T00:16:41.658Z,440.00
2023-01-12T00:17:41.620Z,440.00
2023-01-12T00:18:41.685Z,438.00
2023-01-12T00:19:41.566Z,436.00
2023-01-12T00:20:41.725Z,436.00
2023-01-12T00:21:41.545Z,438.00
2023-01-12T00:22:42.686Z,440.00
2023-01-12T00:23:41.535Z,439.00
2023-01-12T00:24:41.697Z,438.00
2023-01-12T00:25:41.516Z,438.00
2023-01-12T00:26:41.525Z,436.00
2023-01-12T00:27:41.473Z,436.00
2023-01-12T00:28:43.662Z,437.00
2023-01-12T00:29:41.477Z,433.00
2023-01-12T00:30:41.648Z,433.00
2023-01-12T00:31:41.426Z,437.00
2023-01-12T00:32:41.539Z,436.00
2023-01-12T00:33:41.396Z,438.00
2023-01-12T00:34:41.486Z,437.00
2023-01-12T00:35:41.463Z,437.00
2023-01-12T00:36:41.436Z,434.00
2023-01-12T00:37:41.325Z,430.00
2023-01-12T00:38:41.444Z,428.00
2023-01-12T00:39:45.924Z,428.00
2023-01-12T00:40:42.335Z,432.00
2023-01-12T00:41:41.346Z,430.00
2023-01-12T00:42:41.263Z,430.00
2023-01-12T00:43:41.423Z,431.00
2023-01-12T00:44:41.257Z,434.00
2023-01-12T00:45:41.424Z,435.00
2023-01-12T00:46:41.223Z,435.00
2023-01-12T00:47:41.352Z,435.00
2023-01-12T00:48:41.184Z,437.00
2023-01-12T00:49:41.370Z,437.00
2023-01-12T00:50:41.170Z,440.00
2023-01-12T00:51:42.202Z,439.00
2023-01-12T00:52:41.144Z,441.00
2023-01-12T00:53:41.251Z,442.00
2023-01-12T00:54:41.093Z,441.00
2023-01-12T00:55:41.293Z,437.00
2023-01-12T00:56:41.085Z,438.00
2023-01-12T00:57:42.265Z,437.00
2023-01-12T00:58:41.065Z,437.00
2023-01-12T00:59:41.161Z,437.00
2023-01-12T01:00:41.023Z,438.00
2023-01-12T01:01:41.160Z,438.00
2023-01-12T01:02:41.054Z,435.00
2023-01-12T01:03:42.184Z,434.00
2023-01-12T01:04:40.991Z,431.00
2023-01-12T01:05:41.171Z,434.00
2023-01-12T01:06:40.949Z,434.00
2023-01-12T01:07:41.002Z,434.00
2023-01-12T01:08:40.969Z,434.00
2023-01-12T01:09:41.959Z,437.00
2023-01-12T01:10:40.922Z,441.00
2023-01-12T01:11:40.912Z,439.00
2023-01-12T01:12:40.868Z,437.00
2023-01-12T01:13:41.010Z,438.00
2023-01-12T01:14:40.852Z,438.00
2023-01-12T01:15:41.081Z,436.00
2023-01-12T01:16:40.831Z,435.00
2023-01-12T01:17:40.875Z,435.00
2023-01-12T01:18:40.782Z,435.00
2023-01-12T01:19:40.911Z,437.00
2023-01-12T01:20:40.761Z,438.00
2023-01-12T01:21:40.779Z,439.00
2023-01-12T01:22:40.758Z,439.00
2023-01-12T01:23:40.891Z,437.00
2023-01-12T01:24:40.709Z,438.00
2023-01-12T01:25:40.821Z,440.00
2023-01-12T01:26:40.680Z,439.00
2023-01-12T01:27:40.749Z,440.00
2023-01-12T01:28:40.673Z,442.00
2023-01-12T01:29:40.790Z,442.00
2023-01-12T01:30:40.640Z,441.00
2023-01-12T01:31:40.722Z,439.00
2023-01-12T01:32:40.599Z,438.00
2023-01-12T01:33:40.760Z,437.00
2023-01-12T01:34:40.589Z,439.00
2023-01-12T01:35:40.700Z,438.00
2023-01-12T01:36:40.544Z,439.00
2023-01-12T01:37:42.718Z,437.00
2023-01-12T01:38:40.515Z,440.00
2023-01-12T01:39:40.677Z,442.00
2023-01-12T01:40:40.517Z,444.00
2023-01-12T01:41:42.798Z,448.00
2023-01-12T01:42:40.468Z,449.00
2023-01-12T01:43:41.671Z,446.00
2023-01-12T01:44:40.445Z,442.00
2023-01-12T01:45:40.469Z,443.00
2023-01-12T01:46:40.462Z,444.00
2023-01-12T01:47:40.519Z,444.00
2023-01-12T01:48:40.380Z,443.00
2023-01-12T01:49:41.468Z,445.00
2023-01-12T01:50:40.371Z,447.00
2023-01-12T01:51:40.478Z,448.00
2023-01-12T01:52:40.347Z,449.00
2023-01-12T01:53:40.418Z,445.00
2023-01-12T01:54:40.323Z,442.00
2023-01-12T01:55:40.348Z,441.00
2023-01-12T01:56:40.286Z,443.00
2023-01-12T01:57:40.391Z,442.00
2023-01-12T01:58:40.268Z,444.00
2023-01-12T01:59:40.418Z,443.00
2023-01-12T02:00:40.232Z,443.00
2023-01-12T02:01:40.498Z,440.00
2023-01-12T02:02:40.263Z,440.00
2023-01-12T02:03:40.285Z,440.00
2023-01-12T02:04:40.196Z,437.00
2023-01-12T02:05:40.230Z,438.00
2023-01-12T02:06:40.148Z,439.00
2023-01-12T02:07:40.262Z,441.00
2023-01-12T02:08:40.125Z,442.00
2023-01-12T02:09:40.224Z,440.00
2023-01-12T02:10:40.112Z,438.00
2023-01-12T02:11:40.140Z,438.00
2023-01-12T02:12:40.072Z,437.00
2023-01-12T02:13:40.167Z,436.00
2023-01-12T02:14:40.040Z,436.00
2023-01-12T02:15:40.099Z,437.00
2023-01-12T02:16:40.035Z,439.00
2023-01-12T02:17:42.226Z,441.00
2023-01-12T02:18:39.993Z,440.00
2023-01-12T02:19:40.172Z,440.00
2023-01-12T02:20:39.975Z,437.00
2023-01-12T02:21:40.004Z,438.00
2023-01-12T02:22:39.959Z,439.00
2023-01-12T02:23:40.037Z,440.00
2023-01-12T02:24:39.914Z,441.00
2023-01-12T02:25:39.977Z,441.00
2023-01-12T02:26:39.884Z,443.00
2023-01-12T02:27:40.013Z,442.00
2023-01-12T02:28:39.878Z,441.00
2023-01-12T02:29:41.972Z,441.00
2023-01-12T02:30:39.834Z,440.00
2023-01-12T02:31:39.988Z,439.00
2023-01-12T02:32:39.802Z,442.00
2023-01-12T02:33:39.930Z,445.00
2023-01-12T02:34:39.801Z,447.00
2023-01-12T02:35:40.877Z,449.00
2023-01-12T02:36:39.753Z,449.00
2023-01-12T02:37:39.788Z,449.00
2023-01-12T02:38:39.725Z,449.00
2023-01-12T02:39:39.840Z,445.00
2023-01-12T02:40:39.728Z,447.00
2023-01-12T02:41:39.756Z,447.00
2023-01-12T02:42:39.664Z,449.00
2023-01-12T02:43:39.795Z,451.00
2023-01-12T02:44:39.642Z,450.00
2023-01-12T02:45:41.834Z,451.00
2023-01-12T02:46:39.702Z,447.00
2023-01-12T02:47:39.792Z,446.00
2023-01-12T02:48:39.593Z,444.00
2023-01-12T02:49:39.694Z,444.00
2023-01-12T02:50:39.558Z,445.00
2023-01-12T02:52:00.671Z,447.00
2023-01-12T02:52:39.532Z,446.00
2023-01-12T02:53:39.604Z,445.00
2023-01-12T02:54:39.511Z,445.00
2023-01-12T02:55:39.651Z,447.00
2023-01-12T02:56:39.491Z,445.00
2023-01-12T02:57:39.696Z,446.00
2023-01-12T02:58:39.454Z,446.00
2023-01-12T02:59:39.595Z,446.00
2023-01-12T03:00:39.451Z,444.00
2023-01-12T03:01:39.546Z,445.00
2023-01-12T03:02:39.478Z,447.00
2023-01-12T03:03:40.517Z,449.00
2023-01-12T03:04:39.374Z,448.00
2023-01-12T03:05:39.390Z,449.00
2023-01-12T03:06:39.351Z,450.00
2023-01-12T03:07:39.417Z,449.00
2023-01-12T03:08:39.325Z,448.00
2023-01-12T03:09:39.409Z,447.00
2023-01-12T03:10:39.290Z,446.00
2023-01-12T03:11:39.336Z,449.00
2023-01-12T03:12:39.270Z,454.00
2023-01-12T03:13:39.420Z,456.00
2023-01-12T03:14:39.255Z,455.00
2023-01-12T03:15:39.416Z,454.00
2023-01-12T03:16:39.219Z,454.00
2023-01-12T03:17:39.292Z,450.00
2023-01-12T03:18:39.192Z,450.00
2023-01-12T03:19:39.320Z,447.00
2023-01-12T03:20:39.160Z,447.00
2023-01-12T03:21:39.310Z,446.00
2023-01-12T03:22:39.138Z,445.00
2023-01-12T03:23:39.290Z,445.00
2023-01-12T03:24:39.110Z,441.00
2023-01-12T03:26:00.216Z,443.00
2023-01-12T03:26:39.079Z,444.00
2023-01-12T03:27:39.227Z,444.00
2023-01-12T03:28:39.049Z,445.00
2023-01-12T03:29:39.199Z,447.00
2023-01-12T03:30:39.025Z,448.00
2023-01-12T03:31:39.172Z,447.00
2023-01-12T03:32:39.007Z,448.00
2023-01-12T03:33:39.229Z,449.00
2023-01-12T03:34:38.979Z,451.00
2023-01-12T03:35:39.018Z,454.00
2023-01-12T03:36:38.958Z,456.00
2023-01-12T03:37:39.039Z,458.00
2023-01-12T03:38:38.932Z,460.00
2023-01-12T03:39:39.042Z,461.00
2023-01-12T03:40:38.898Z,463.00
2023-01-12T03:41:39.039Z,464.00
2023-01-12T03:42:38.872Z,463.00
2023-01-12T03:43:39.056Z,465.00
2023-01-12T03:44:38.857Z,466.00
2023-01-12T03:45:38.936Z,465.00
2023-01-12T03:46:38.857Z,466.00
2023-01-12T03:47:38.956Z,464.00
2023-01-12T03:48:38.808Z,465.00
2023-01-12T03:49:38.956Z,461.00
2023-01-12T03:50:38.768Z,460.00
2023-01-12T03:51:38.948Z,461.00
2023-01-12T03:52:38.749Z,459.00
2023-01-12T03:53:38.817Z,457.00
2023-01-12T03:54:38.729Z,455.00
2023-01-12T03:55:38.767Z,458.00
2023-01-12T03:56:38.703Z,460.00
2023-01-12T03:57:38.846Z,462.00
2023-01-12T03:58:38.659Z,462.00
2023-01-12T03:59:38.827Z,462.00
2023-01-12T04:00:38.720Z,464.00
2023-01-12T04:01:40.952Z,463.00
2023-01-12T04:02:38.619Z,465.00
2023-01-12T04:03:38.675Z,467.00
2023-01-12T04:04:38.576Z,468.00
2023-01-12T04:05:38.636Z,466.00
2023-01-12T04:06:38.546Z,467.00
2023-01-12T04:07:38.677Z,467.00
2023-01-12T04:08:38.526Z,467.00
2023-01-12T04:09:38.655Z,467.00
2023-01-12T04:10:38.498Z,466.00
2023-01-12T04:11:38.652Z,466.00
2023-01-12T04:12:38.475Z,465.00
2023-01-12T04:13:40.568Z,464.00
2023-01-12T04:14:38.473Z,460.00
2023-01-12T04:15:38.572Z,455.00
2023-01-12T04:16:38.482Z,453.00
2023-01-12T04:17:38.550Z,460.00
2023-01-12T04:18:38.400Z,462.00
2023-01-12T04:19:38.486Z,459.00
2023-01-12T04:20:38.366Z,454.00
2023-01-12T04:21:38.466Z,453.00
2023-01-12T04:22:38.338Z,452.00
2023-01-12T04:23:38.419Z,453.00
2023-01-12T04:24:38.320Z,450.00
2023-01-12T04:25:38.392Z,449.00
2023-01-12T04:26:38.284Z,451.00
2023-01-12T04:27:38.475Z,454.00
2023-01-12T04:28:38.265Z,456.00
2023-01-12T04:29:38.355Z,458.00
2023-01-12T04:30:38.233Z,461.00
2023-01-12T04:31:38.316Z,458.00
2023-01-12T04:32:38.203Z,459.00
2023-01-12T04:33:38.298Z,458.00
2023-01-12T04:34:38.172Z,461.00
2023-01-12T04:35:59.242Z,466.00
2023-01-12T04:36:38.187Z,467.00
2023-01-12T04:37:38.302Z,463.00
2023-01-12T04:38:38.144Z,463.00
2023-01-12T04:39:39.212Z,463.00
2023-01-12T04:40:38.100Z,464.00
2023-01-12T04:41:39.197Z,465.00
2023-01-12T04:42:38.077Z,462.00
2023-01-12T04:43:38.204Z,460.00
2023-01-12T04:44:38.054Z,459.00
2023-01-12T04:45:38.263Z,459.00
2023-01-12T04:46:38.022Z,460.00
2023-01-12T04:47:39.210Z,461.00
2023-01-12T04:48:37.992Z,463.00
2023-01-12T04:49:38.110Z,465.00
2023-01-12T04:50:37.970Z,471.00
2023-01-12T04:51:38.104Z,473.00
2023-01-12T04:52:37.950Z,473.00
2023-01-12T04:53:39.108Z,471.00
2023-01-12T04:54:37.921Z,474.00
2023-01-12T04:55:38.009Z,472.00
2023-01-12T04:56:37.903Z,475.00
2023-01-12T04:57:38.108Z,478.00
2023-01-12T04:58:37.865Z,478.00
2023-01-12T04:59:37.990Z,479.00
2023-01-12T05:00:37.866Z,480.00
2023-01-12T05:01:38.047Z,475.00
2023-01-12T05:02:37.828Z,476.00
2023-01-12T05:03:39.976Z,473.00
2023-01-12T05:04:37.781Z,469.00
2023-01-12T05:05:58.914Z,460.00
2023-01-12T05:06:37.751Z,457.00
2023-01-12T05:07:37.830Z,460.00
2023-01-12T05:08:37.723Z,462.00
2023-01-12T05:09:38.830Z,457.00
2023-01-12T05:10:37.699Z,456.00
2023-01-12T05:11:37.809Z,452.00
2023-01-12T05:12:37.677Z,449.00
2023-01-12T05:13:37.831Z,450.00
2023-01-12T05:14:37.656Z,452.00
2023-01-12T05:15:37.823Z,455.00
2023-01-12T05:16:37.715Z,457.00
2023-01-12T05:17:37.715Z,455.00
2023-01-12T05:18:37.600Z,454.00
2023-01-12T05:19:37.742Z,452.00
2023-01-12T05:20:37.573Z,449.00
2023-01-12T05:21:37.737Z,431.00
2023-01-12T05:22:37.550Z,425.00
2023-01-12T05:23:37.711Z,417.00
2023-01-12T05:24:37.531Z,416.00
2023-01-12T05:25:37.655Z,433.00
2023-01-12T05:26:37.492Z,434.00
2023-01-12T05:27:38.547Z,433.00
2023-01-12T05:28:37.458Z,431.00
2023-01-12T05:29:37.619Z,430.00
2023-01-12T05:30:37.476Z,432.00
2023-01-12T05:31:37.548Z,434.00
2023-01-12T05:32:37.418Z,439.00
2023-01-12T05:33:40.815Z,442.00
2023-01-12T05:34:37.404Z,443.00
2023-01-12T05:35:37.419Z,442.00
2023-01-12T05:36:37.361Z,445.00
2023-01-12T05:37:37.464Z,447.00
2023-01-12T05:38:37.336Z,449.00
2023-01-12T05:39:37.452Z,451.00
2023-01-12T05:40:37.304Z,447.00
2023-01-12T05:41:37.428Z,450.00
2023-01-12T05:42:37.277Z,444.00
2023-01-12T05:43:37.477Z,444.00
2023-01-12T05:44:37.257Z,438.00
2023-01-12T05:45:37.362Z,433.00
2023-01-12T05:46:37.226Z,435.00
2023-01-12T05:47:37.338Z,429.00
2023-01-12T05:48:37.200Z,419.00
2023-01-12T05:49:37.275Z,417.00
2023-01-12T05:50:37.176Z,422.00
2023-01-12T05:51:40.525Z,426.00
2023-01-12T05:52:37.148Z,429.00
2023-01-12T05:53:37.236Z,430.00
2023-01-12T05:54:37.125Z,424.00
2023-01-12T05:55:37.177Z,420.00
2023-01-12T05:56:37.112Z,421.00
2023-01-12T05:57:38.191Z,418.00
2023-01-12T05:58:37.072Z,420.00
2023-01-12T05:59:37.152Z,419.00
2023-01-12T06:00:37.046Z,419.00
2023-01-12T06:01:37.193Z,419.00
2023-01-12T06:02:37.099Z,418.00
2023-01-12T06:03:37.118Z,417.00
2023-01-12T06:04:37.025Z,417.00
2023-01-12T06:05:37.056Z,416.00
2023-01-12T06:06:36.965Z,416.00
2023-01-12T06:07:37.083Z,416.00
2023-01-12T06:08:36.954Z,415.00
2023-01-12T06:09:37.145Z,414.00
2023-01-12T06:10:36.921Z,414.00
2023-01-12T06:11:37.056Z,416.00
2023-01-12T06:12:36.894Z,412.00
2023-01-12T06:13:37.010Z,412.00
2023-01-12T06:14:36.865Z,412.00
2023-01-12T06:15:36.983Z,414.00
2023-01-12T06:16:36.835Z,410.00
2023-01-12T06:17:36.965Z,409.00
2023-01-12T06:18:36.797Z,411.00
2023-01-12T06:19:37.923Z,412.00
2023-01-12T06:20:36.811Z,406.00
2023-01-12T06:21:36.832Z,412.00
2023-01-12T06:22:36.760Z,409.00
2023-01-12T06:23:36.879Z,408.00
2023-01-12T06:24:36.723Z,410.00
2023-01-12T06:25:36.815Z,412.00
2023-01-12T06:26:36.713Z,409.00
2023-01-12T06:27:36.833Z,412.00
2023-01-12T06:28:36.705Z,408.00
2023-01-12T06:29:36.778Z,409.00
2023-01-12T06:30:36.642Z,410.00
2023-01-12T06:31:36.709Z,411.00
2023-01-12T06:32:36.677Z,408.00
2023-01-12T06:33:36.743Z,406.00
2023-01-12T06:34:36.608Z,406.00
2023-01-12T06:35:36.686Z,408.00
2023-01-12T06:36:36.576Z,407.00
2023-01-12T06:37:36.653Z,407.00
2023-01-12T06:38:36.571Z,407.00
2023-01-12T06:39:36.657Z,407.00
2023-01-12T06:40:36.515Z,407.00
2023-01-12T06:41:36.593Z,406.00
2023-01-12T06:42:36.473Z,405.00
2023-01-12T06:43:38.613Z,404.00
2023-01-12T06:44:36.493Z,403.00
2023-01-12T06:45:36.563Z,401.00
2023-01-12T06:46:36.449Z,404.00
2023-01-12T06:47:37.622Z,403.00
2023-01-12T06:48:38.807Z,405.00
2023-01-12T06:49:36.421Z,405.00
2023-01-12T06:50:36.393Z,404.00
2023-01-12T06:51:36.462Z,406.00
2023-01-12T06:52:36.622Z,400.00
2023-01-12T06:53:36.532Z,405.00
2023-01-12T06:54:36.342Z,408.00
2023-01-12T06:55:36.431Z,404.00
2023-01-12T06:56:36.642Z,409.00
2023-01-12T06:57:36.487Z,409.00
2023-01-12T06:58:36.274Z,409.00
2023-01-12T06:59:39.072Z,408.00
2023-01-12T07:00:36.242Z,407.00
2023-01-12T07:01:36.459Z,405.00
2023-01-12T07:02:36.219Z,403.00
2023-01-12T07:03:36.316Z,404.00
2023-01-12T07:04:36.225Z,403.00
2023-01-12T07:05:36.312Z,401.00
2023-01-12T07:06:36.151Z,402.00
2023-01-12T07:07:36.274Z,403.00
2023-01-12T07:08:36.132Z,405.00
2023-01-12T07:09:36.202Z,406.00
2023-01-12T07:10:36.112Z,407.00
2023-01-12T07:11:36.212Z,406.00
2023-01-12T07:12:36.087Z,405.00
2023-01-12T07:13:36.204Z,404.00
2023-01-12T07:14:36.060Z,407.00
2023-01-12T07:15:36.321Z,405.00
2023-01-12T07:16:36.031Z,403.00
2023-01-12T07:17:36.123Z,403.00
2023-01-12T07:18:36.008Z,401.00
2023-01-12T07:19:36.135Z,408.00
2023-01-12T07:20:35.989Z,402.00
2023-01-12T07:21:36.101Z,403.00
2023-01-12T07:22:35.952Z,407.00
2023-01-12T07:23:36.133Z,406.00
2023-01-12T07:24:35.934Z,407.00
2023-01-12T07:25:36.121Z,408.00
2023-01-12T07:26:35.916Z,409.00
2023-01-12T07:27:36.001Z,408.00
2023-01-12T07:28:35.874Z,408.00
2023-01-12T07:29:35.933Z,413.00
2023-01-12T07:30:35.883Z,420.00
2023-01-12T07:31:36.030Z,421.00
2023-01-12T07:32:35.824Z,421.00
2023-01-12T07:33:36.009Z,420.00
2023-01-12T07:34:35.788Z,418.00
2023-01-12T07:35:35.840Z,417.00
2023-01-12T07:36:35.761Z,417.00
2023-01-12T07:37:35.834Z,416.00
2023-01-12T07:38:35.732Z,410.00
2023-01-12T07:39:35.811Z,410.00
2023-01-12T07:40:35.727Z,408.00
2023-01-12T07:41:37.949Z,413.00
2023-01-12T07:42:35.680Z,415.00
2023-01-12T07:43:35.837Z,416.00
2023-01-12T07:44:35.671Z,413.00
2023-01-12T07:45:35.712Z,414.00
2023-01-12T07:46:35.674Z,413.00
2023-01-12T07:47:37.741Z,412.00
2023-01-12T07:48:35.614Z,414.00
2023-01-12T07:49:35.739Z,415.00
2023-01-12T07:50:35.569Z,417.00
2023-01-12T07:51:35.825Z,416.00
2023-01-12T07:52:35.560Z,419.00
2023-01-12T07:53:35.751Z,420.00
2023-01-12T07:54:35.553Z,418.00
2023-01-12T07:55:35.642Z,418.00
2023-01-12T07:56:35.491Z,417.00
2023-01-12T07:57:35.585Z,418.00
2023-01-12T07:58:35.462Z,417.00
2023-01-12T07:59:35.604Z,418.00
2023-01-12T08:00:35.436Z,420.00
2023-01-12T08:01:35.818Z,417.00
2023-01-12T08:02:35.457Z,417.00
2023-01-12T08:03:37.510Z,419.00
2023-01-12T08:04:35.387Z,419.00
2023-01-12T08:05:35.530Z,421.00
2023-01-12T08:06:35.369Z,417.00
2023-01-12T08:07:35.850Z,416.00
2023-01-12T08:08:35.338Z,418.00
2023-01-12T08:09:36.467Z,418.00
2023-01-12T08:10:35.355Z,417.00
2023-01-12T08:11:36.202Z,414.00
2023-01-12T08:12:35.418Z,417.00
2023-01-12T08:13:35.363Z,421.00
2023-01-12T08:14:35.249Z,418.00
2023-01-12T08:15:36.388Z,421.00
2023-01-12T08:16:35.232Z,420.00
2023-01-12T08:17:35.391Z,421.00
2023-01-12T08:18:35.198Z,417.00
2023-01-12T08:19:36.545Z,415.00
2023-01-12T08:20:35.177Z,415.00
2023-01-12T08:21:37.243Z,416.00
2023-01-12T08:22:35.199Z,413.00
2023-01-12T08:23:35.293Z,413.00
2023-01-12T08:24:35.985Z,413.00
2023-01-12T08:25:35.219Z,413.00
2023-01-12T08:26:35.153Z,409.00
2023-01-12T08:27:35.281Z,407.00
2023-01-12T08:28:35.116Z,406.00
2023-01-12T08:29:35.188Z,405.00
2023-01-12T08:30:35.043Z,407.00
2023-01-12T08:31:35.310Z,409.00
2023-01-12T08:32:35.065Z,411.00
2023-01-12T08:33:35.050Z,411.00
2023-01-12T08:34:34.985Z,408.00
2023-01-12T08:35:36.137Z,408.00
2023-01-12T08:36:34.972Z,409.00
2023-01-12T08:37:34.995Z,407.00
2023-01-12T08:38:34.940Z,409.00
2023-01-12T08:39:35.068Z,408.00
2023-01-12T08:40:34.912Z,407.00
2023-01-12T08:41:34.998Z,406.00
2023-01-12T08:42:34.884Z,405.00
2023-01-12T08:43:34.992Z,406.00
2023-01-12T08:44:34.854Z,406.00
2023-01-12T08:45:36.005Z,405.00
2023-01-12T08:46:34.893Z,403.00
2023-01-12T08:47:39.166Z,404.00
2023-01-12T08:48:34.807Z,404.00
2023-01-12T08:49:34.995Z,403.00
2023-01-12T08:50:34.777Z,398.00
2023-01-12T08:51:34.854Z,402.00
2023-01-12T08:52:34.780Z,404.00
2023-01-12T08:53:34.813Z,406.00
2023-01-12T08:54:34.774Z,404.00
2023-01-12T08:55:34.886Z,402.00
2023-01-12T08:56:34.697Z,402.00
2023-01-12T08:57:56.846Z,404.00
2023-01-12T08:58:34.680Z,402.00
2023-01-12T08:59:34.674Z,404.00
2023-01-12T09:00:34.644Z,402.00
2023-01-12T09:01:34.931Z,400.00
2023-01-12T09:02:34.698Z,401.00
2023-01-12T09:03:34.689Z,400.00
2023-01-12T09:04:34.596Z,402.00
2023-01-12T09:05:34.685Z,402.00
2023-01-12T09:06:34.615Z,403.00
2023-01-12T09:07:35.654Z,400.00
2023-01-12T09:08:34.555Z,402.00
2023-01-12T09:09:34.612Z,403.00
2023-01-12T09:10:34.512Z,404.00
2023-01-12T09:11:34.651Z,409.00
2023-01-12T09:12:34.588Z,406.00
2023-01-12T09:13:35.643Z,408.00
2023-01-12T09:14:35.900Z,407.00
2023-01-12T09:15:36.950Z,404.00
2023-01-12T09:16:34.492Z,403.00
2023-01-12T09:17:34.564Z,404.00
2023-01-12T09:18:34.543Z,402.00
2023-01-12T09:19:37.835Z,405.00
2023-01-12T09:20:34.533Z,406.00
2023-01-12T09:21:34.520Z,404.00
2023-01-12T09:22:34.369Z,407.00
2023-01-12T09:23:34.556Z,407.00
2023-01-12T09:24:35.454Z,409.00
2023-01-12T09:25:35.578Z,410.00
2023-01-12T09:26:35.226Z,408.00
2023-01-12T09:27:34.425Z,409.00
2023-01-12T09:28:34.310Z,407.00
2023-01-12T09:29:34.364Z,409.00
2023-01-12T09:30:34.248Z,409.00
2023-01-12T09:31:34.457Z,408.00
2023-01-12T09:32:37.312Z,406.00
2023-01-12T09:33:38.277Z,408.00
2023-01-12T09:34:34.234Z,409.00
2023-01-12T09:35:34.327Z,409.00
2023-01-12T09:36:34.154Z,407.00
2023-01-12T09:37:34.243Z,406.00
2023-01-12T09:38:34.139Z,404.00
2023-01-12T09:39:34.232Z,403.00
2023-01-12T09:40:34.111Z,405.00
2023-01-12T09:41:34.261Z,405.00
2023-01-12T09:42:34.137Z,403.00
2023-01-12T09:43:34.277Z,402.00
2023-01-12T09:44:34.078Z,407.00
2023-01-12T09:45:34.162Z,398.00
2023-01-12T09:46:34.074Z,398.00
2023-01-12T09:47:34.175Z,402.00
2023-01-12T09:48:34.016Z,405.00
2023-01-12T09:49:37.335Z,404.00
2023-01-12T09:50:33.983Z,403.00
2023-01-12T09:51:34.142Z,404.00
2023-01-12T09:52:33.943Z,404.00
2023-01-12T09:53:34.074Z,405.00
2023-01-12T09:54:33.936Z,403.00
2023-01-12T09:55:34.983Z,407.00
2023-01-12T09:56:34.127Z,406.00
2023-01-12T09:57:33.953Z,406.00
2023-01-12T09:58:33.870Z,405.00
2023-01-12T09:59:34.002Z,405.00
2023-01-12T10:00:33.862Z,405.00
2023-01-12T10:01:34.003Z,407.00
2023-01-12T10:02:33.929Z,407.00
2023-01-12T10:03:33.892Z,406.00
2023-01-12T10:04:33.783Z,403.00
2023-01-12T10:05:39.662Z,401.00
2023-01-12T10:06:35.956Z,405.00
2023-01-12T10:07:33.749Z,405.00
2023-01-12T10:08:33.803Z,406.00
2023-01-12T10:09:33.716Z,408.00
2023-01-12T10:10:33.821Z,410.00
2023-01-12T10:11:33.691Z,407.00
2023-01-12T10:12:36.981Z,408.00
2023-01-12T10:13:33.697Z,409.00
2023-01-12T10:14:33.808Z,412.00
2023-01-12T10:15:33.642Z,408.00
2023-01-12T10:16:33.852Z,406.00
2023-01-12T10:17:46.008Z,406.00
2023-01-12T10:18:34.627Z,407.00
2023-01-12T10:19:33.752Z,406.00
2023-01-12T10:20:33.585Z,407.00
2023-01-12T10:21:33.668Z,403.00
2023-01-12T10:22:33.553Z,406.00
2023-01-12T10:23:33.635Z,409.00
2023-01-12T10:24:33.544Z,411.00
2023-01-12T10:25:33.651Z,411.00
2023-01-12T10:26:33.501Z,412.00
2023-01-12T10:27:33.677Z,418.00
2023-01-12T10:28:33.541Z,415.00
2023-01-12T10:29:33.828Z,412.00
2023-01-12T10:30:33.487Z,409.00
2023-01-12T10:31:33.558Z,408.00
2023-01-12T10:32:41.476Z,408.00
2023-01-12T10:33:34.414Z,406.00
2023-01-12T10:34:33.555Z,410.00
2023-01-12T10:35:33.373Z,410.00
2023-01-12T10:36:33.432Z,411.00
2023-01-12T10:37:33.341Z,409.00
2023-01-12T10:38:33.413Z,408.00
2023-01-12T10:39:33.323Z,408.00
2023-01-12T10:40:33.455Z,409.00
2023-01-12T10:41:33.280Z,409.00
2023-01-12T10:42:33.433Z,408.00
2023-01-12T10:43:33.262Z,407.00
2023-01-12T10:44:34.343Z,407.00
2023-01-12T10:45:33.286Z,407.00
2023-01-12T10:46:33.382Z,408.00
2023-01-12T10:47:33.220Z,407.00
2023-01-12T10:48:33.348Z,406.00
2023-01-12T10:49:33.180Z,403.00
2023-01-12T10:50:33.328Z,404.00
2023-01-12T10:51:33.172Z,403.00
2023-01-12T10:52:34.297Z,406.00
2023-01-12T10:53:33.131Z,407.00
2023-01-12T10:54:33.252Z,404.00
2023-01-12T10:55:33.125Z,404.00
2023-01-12T10:56:33.233Z,401.00
2023-01-12T10:57:33.069Z,398.00
2023-01-12T10:58:34.194Z,399.00
2023-01-12T10:59:33.045Z,399.00
2023-01-12T11:00:33.251Z,402.00
2023-01-12T11:01:33.104Z,404.00
2023-01-12T11:02:33.153Z,405.00
2023-01-12T11:03:33.005Z,404.00
2023-01-12T11:04:54.052Z,403.00
2023-01-12T11:05:32.971Z,401.00
2023-01-12T11:06:33.087Z,399.00
2023-01-12T11:07:33.070Z,400.00
2023-01-12T11:08:33.204Z,400.00
2023-01-12T11:09:32.915Z,401.00
2023-01-12T11:10:33.091Z,400.00
2023-01-12T11:11:32.888Z,402.00
2023-01-12T11:12:33.008Z,404.00
2023-01-12T11:13:32.909Z,403.00
2023-01-12T11:14:32.951Z,405.00
2023-01-12T11:15:32.958Z,400.00
2023-01-12T11:16:54.011Z,400.00
2023-01-12T11:17:32.804Z,397.00
2023-01-12T11:18:32.894Z,398.00
2023-01-12T11:19:32.799Z,399.00
2023-01-12T11:20:32.953Z,397.00
2023-01-12T11:21:32.753Z,397.00
2023-01-12T11:22:32.799Z,396.00
2023-01-12T11:23:32.738Z,396.00
2023-01-12T11:24:32.878Z,397.00
2023-01-12T11:25:32.703Z,396.00
2023-01-12T11:26:32.865Z,396.00
2023-01-12T11:27:36.290Z,396.00
2023-01-12T11:28:38.398Z,399.00
2023-01-12T11:29:39.242Z,397.00
2023-01-12T11:30:32.692Z,400.00
2023-01-12T11:31:32.802Z,397.00
2023-01-12T11:32:32.620Z,399.00
2023-01-12T11:33:32.743Z,401.00
2023-01-12T11:34:32.709Z,403.00
2023-01-12T11:35:32.620Z,402.00
2023-01-12T11:36:32.547Z,401.00
2023-01-12T11:37:32.606Z,398.00
2023-01-12T11:38:32.526Z,398.00
2023-01-12T11:39:32.658Z,400.00
2023-01-12T11:40:32.500Z,396.00
2023-01-12T11:41:32.629Z,396.00
2023-01-12T11:42:32.472Z,392.00
2023-01-12T11:43:32.614Z,395.00
2023-01-12T11:44:32.442Z,397.00
2023-01-12T11:45:32.541Z,398.00
2023-01-12T11:46:32.424Z,397.00
2023-01-12T11:47:32.531Z,395.00
2023-01-12T11:48:32.396Z,395.00
2023-01-12T11:49:32.531Z,395.00
2023-01-12T11:50:32.362Z,396.00
2023-01-12T11:51:32.467Z,396.00
2023-01-12T11:52:32.334Z,395.00
2023-01-12T11:53:32.543Z,396.00
2023-01-12T11:54:32.306Z,397.00
2023-01-12T11:55:32.423Z,395.00
2023-01-12T11:56:32.282Z,391.00
2023-01-12T11:57:32.320Z,386.00
2023-01-12T11:58:32.262Z,391.00
2023-01-12T11:59:33.328Z,391.00
2023-01-12T12:00:32.229Z,392.00
2023-01-12T12:01:32.236Z,390.00
2023-01-12T12:02:32.302Z,393.00
2023-01-12T12:03:33.340Z,394.00
2023-01-12T12:04:32.152Z,393.00
2023-01-12T12:05:32.265Z,393.00
2023-01-12T12:06:32.152Z,395.00
2023-01-12T12:07:32.254Z,396.00
2023-01-12T12:08:32.124Z,395.00
2023-01-12T12:09:32.282Z,396.00
2023-01-12T12:10:32.092Z,393.00
2023-01-12T12:11:32.164Z,397.00
2023-01-12T12:12:32.064Z,394.00
2023-01-12T12:13:32.154Z,394.00
2023-01-12T12:14:32.045Z,394.00
2023-01-12T12:15:53.207Z,395.00
2023-01-12T12:16:32.014Z,398.00
2023-01-12T12:17:32.176Z,397.00
2023-01-12T12:18:31.995Z,400.00
2023-01-12T12:19:32.167Z,396.00
2023-01-12T12:20:31.957Z,394.00
2023-01-12T12:21:33.025Z,395.00
2023-01-12T12:22:31.939Z,395.00
2023-01-12T12:23:32.072Z,394.00
2023-01-12T12:24:31.910Z,393.00
2023-01-12T12:25:32.070Z,395.00
2023-01-12T12:26:31.883Z,391.00
2023-01-12T12:27:32.023Z,393.00
2023-01-12T12:28:31.847Z,392.00